Time;durP1;ratioP1;P1;durP2;ratioP2;P2;SDS_P1;SDS_P2;PMS_P1;PMS_P2;Temp;Humidity;BMP_temperature;BMP_pressure;BME280_temperature;BME280_humidity;BME280_pressure;Samples;Min_cycle;Max_cycle;Signal;HPM_P1;HPM_P2
2023/08/13 00:01:36;;;;;;;0.10;0.10;;;20.90;99.90;;;;;;5005625;28;20237;-81
2023/08/13 00:04:03;;;;;;;0.10;0.10;;;20.90;99.90;;;;;;5007008;28;20202;-81
2023/08/13 00:06:28;;;;;;;0.10;0.10;;;20.80;99.90;;;;;;5006311;28;20664;-81
2023/08/13 00:08:54;;;;;;;0.10;0.10;;;20.80;99.90;;;;;;5006988;28;20203;-82
2023/08/13 00:11:19;;;;;;;0.10;0.10;;;20.80;99.90;;;;;;5005857;28;20274;-82
2023/08/13 00:13:45;;;;;;;0.10;0.10;;;20.70;99.90;;;;;;5007682;28;20266;-82
2023/08/13 00:16:11;;;;;;;0.10;0.10;;;20.70;99.90;;;;;;5005682;28;20270;-82
2023/08/13 00:18:36;;;;;;;0.10;0.10;;;20.70;99.90;;;;;;5005825;28;20207;-82
2023/08/13 00:21:02;;;;;;;0.10;0.10;;;20.60;99.90;;;;;;5007223;28;20187;-82
2023/08/13 00:23:27;;;;;;;0.10;0.10;;;20.40;99.90;;;;;;5005836;28;20194;-82
2023/08/13 00:25:53;;;;;;;0.10;0.10;;;20.40;99.90;;;;;;5005397;28;20221;-82
2023/08/13 00:28:18;;;;;;;0.10;0.10;;;20.40;99.90;;;;;;5007405;28;20216;-81
2023/08/13 00:30:44;;;;;;;0.10;0.10;;;20.40;99.90;;;;;;5004584;28;20190;-82
2023/08/13 00:33:10;;;;;;;0.10;0.10;;;20.50;99.90;;;;;;5022396;28;20194;-81
2023/08/13 00:35:35;;;;;;;0.10;0.10;;;20.50;99.90;;;;;;5005370;28;20202;-82
2023/08/13 00:38:01;;;;;;;0.10;0.10;;;20.50;99.90;;;;;;5007250;28;20215;-82
2023/08/13 00:40:27;;;;;;;0.10;0.10;;;20.50;99.90;;;;;;5006084;28;20195;-81
2023/08/13 00:42:53;;;;;;;0.10;0.10;;;20.40;99.90;;;;;;5006724;28;20270;-83
2023/08/13 00:45:19;;;;;;;0.10;0.10;;;20.40;99.90;;;;;;5020743;28;20221;-81
2023/08/13 00:47:45;;;;;;;0.10;0.10;;;20.40;99.90;;;;;;5006661;28;20211;-82
2023/08/13 00:50:11;;;;;;;0.10;0.10;;;20.20;99.90;;;;;;5005420;28;20230;-81
2023/08/13 00:52:37;;;;;;;0.10;0.10;;;20.00;99.90;;;;;;5005066;28;20183;-83
2023/08/13 00:55:04;;;;;;;0.10;0.10;;;19.80;99.90;;;;;;5009891;28;20195;-81
2023/08/13 00:57:30;;;;;;;0.10;0.10;;;19.70;99.90;;;;;;5008205;28;20207;-81
2023/08/13 00:59:57;;;;;;;0.10;0.10;;;19.50;99.90;;;;;;5007726;28;20190;-81
2023/08/13 01:02:23;;;;;;;0.10;0.10;;;19.40;99.90;;;;;;5024341;28;20194;-82
2023/08/13 01:04:49;;;;;;;0.10;0.10;;;19.20;99.90;;;;;;5007839;28;20207;-81
2023/08/13 01:07:54;;;;;;;0.10;0.10;;;19.20;99.90;;;;;;5007083;28;20692;-81
2023/08/13 01:10:36;;;;;;;0.10;0.10;;;19.30;99.90;;;;;;5009503;28;20342;-82
2023/08/13 01:13:20;;;;;;;0.10;0.10;;;19.30;99.90;;;;;;5009048;28;20222;-81
2023/08/13 01:15:46;;;;;;;0.10;0.10;;;19.40;99.90;;;;;;5009461;28;20227;-81
2023/08/13 01:18:13;;;;;;;0.10;0.10;;;19.40;99.90;;;;;;5008183;28;20738;-81
2023/08/13 01:20:41;;;;;;;0.10;0.10;;;19.40;99.90;;;;;;5008672;28;20195;-82
2023/08/13 01:23:07;;;;;;;0.10;0.10;;;19.30;99.90;;;;;;5008289;28;20212;-81
2023/08/13 01:25:33;;;;;;;0.10;0.10;;;19.30;99.90;;;;;;5008806;28;20628;-82
2023/08/13 01:28:15;;;;;;;0.10;0.10;;;19.30;99.90;;;;;;5008755;28;20213;-82
2023/08/13 01:30:49;;;;;;;0.10;0.10;;;19.20;99.90;;;;;;5007446;28;20219;-81
2023/08/13 01:33:27;;;;;;;0.10;0.10;;;19.30;99.90;;;;;;5008737;28;20183;-81
2023/08/13 01:35:57;;;;;;;0.10;0.10;;;19.20;99.90;;;;;;5007693;28;20191;-82
2023/08/13 01:38:24;;;;;;;0.10;0.10;;;19.10;99.90;;;;;;5007137;28;20210;-82
2023/08/13 01:40:50;;;;;;;0.10;0.10;;;18.90;99.90;;;;;;5006013;28;20277;-81
2023/08/13 01:43:16;;;;;;;0.10;0.10;;;18.70;99.90;;;;;;5006449;28;20560;-81
2023/08/13 01:45:42;;;;;;;0.10;0.10;;;18.60;99.90;;;;;;5006727;28;20260;-81
2023/08/13 01:48:08;;;;;;;0.10;0.10;;;18.60;99.90;;;;;;5006447;28;20211;-81
2023/08/13 01:50:34;;;;;;;0.10;0.10;;;18.70;99.90;;;;;;5006189;28;20206;-82
2023/08/13 01:53:00;;;;;;;0.10;0.10;;;18.80;99.90;;;;;;5022449;28;20397;-82
2023/08/13 01:55:25;;;;;;;0.10;0.10;;;18.90;99.90;;;;;;5008913;28;20702;-81
2023/08/13 01:57:51;;;;;;;0.10;0.10;;;19.00;99.90;;;;;;5007657;28;20210;-82
2023/08/13 02:00:16;;;;;;;0.10;0.10;;;19.00;99.90;;;;;;5005313;28;20343;-81
2023/08/13 02:02:42;;;;;;;0.10;0.10;;;19.10;99.90;;;;;;5022651;28;20197;-82
2023/08/13 02:05:08;;;;;;;0.10;0.10;;;19.10;99.90;;;;;;5005505;28;20583;-81
2023/08/13 02:07:34;;;;;;;0.10;0.10;;;18.90;99.90;;;;;;5008045;28;20760;-82
2023/08/13 02:09:59;;;;;;;0.10;0.10;;;18.90;99.90;;;;;;5005419;28;20183;-82
2023/08/13 02:12:26;;;;;;;0.10;0.10;;;19.00;99.90;;;;;;5006258;28;20653;-82
2023/08/13 02:14:51;;;;;;;0.10;0.10;;;18.80;99.90;;;;;;5006688;28;20203;-82
2023/08/13 02:17:17;;;;;;;0.10;0.10;;;18.80;99.90;;;;;;5007181;28;20203;-81
2023/08/13 02:19:42;;;;;;;0.10;0.10;;;18.90;99.90;;;;;;5005233;28;20183;-82
2023/08/13 02:22:08;;;;;;;0.10;0.10;;;18.90;99.90;;;;;;5006790;28;20190;-82
2023/08/13 02:24:34;;;;;;;0.10;0.10;;;19.00;99.90;;;;;;5005607;28;20660;-81
2023/08/13 02:26:59;;;;;;;0.10;0.10;;;19.10;99.90;;;;;;5005421;28;20221;-81
2023/08/13 02:29:25;;;;;;;0.10;0.10;;;19.20;99.90;;;;;;5006394;28;20210;-81
2023/08/13 02:31:50;;;;;;;0.10;0.10;;;19.30;99.90;;;;;;5006690;28;20178;-81
2023/08/13 02:34:16;;;;;;;0.10;0.10;;;19.30;99.90;;;;;;5005441;28;20191;-81
2023/08/13 02:36:41;;;;;;;0.10;0.10;;;19.30;99.90;;;;;;5006579;28;20185;-82
2023/08/13 02:39:07;;;;;;;0.10;0.10;;;19.00;99.90;;;;;;5005148;28;20214;-82
2023/08/13 02:41:33;;;;;;;0.10;0.10;;;19.00;99.90;;;;;;5004298;28;20264;-81
2023/08/13 02:43:59;;;;;;;0.10;0.10;;;18.80;99.90;;;;;;5004962;28;20211;-81
2023/08/13 02:46:26;;;;;;;0.10;0.10;;;18.70;99.90;;;;;;5021151;28;20241;-82
2023/08/13 02:48:56;;;;;;;0.10;0.10;;;18.70;99.90;;;;;;5006092;28;20210;-81
2023/08/13 02:51:23;;;;;;;0.10;0.10;;;18.70;99.90;;;;;;5004008;28;20237;-82
2023/08/13 02:53:49;;;;;;;0.10;0.10;;;18.70;99.90;;;;;;5004369;28;20335;-82
2023/08/13 02:56:15;;;;;;;0.10;0.10;;;18.80;99.90;;;;;;5006271;28;20187;-81
2023/08/13 02:58:40;;;;;;;0.10;0.10;;;18.80;99.90;;;;;;5005924;28;20214;-82
2023/08/13 03:01:06;;;;;;;0.10;0.10;;;18.70;99.90;;;;;;5004039;28;20187;-81
2023/08/13 03:03:32;;;;;;;0.10;0.10;;;18.80;99.90;;;;;;5004792;28;20186;-81
2023/08/13 03:05:58;;;;;;;0.10;0.10;;;18.80;99.90;;;;;;5004548;28;21313;-82
2023/08/13 03:08:24;;;;;;;0.10;0.10;;;18.80;99.90;;;;;;5021180;28;20713;-82
2023/08/13 03:10:49;;;;;;;0.10;0.10;;;18.90;99.90;;;;;;5004217;28;20190;-81
2023/08/13 03:13:15;;;;;;;0.10;0.10;;;18.70;99.90;;;;;;5005946;28;20233;-81
2023/08/13 03:15:41;;;;;;;0.10;0.10;;;18.50;99.90;;;;;;5005664;28;20187;-81
2023/08/13 03:18:07;;;;;;;0.10;0.10;;;18.40;99.90;;;;;;5003314;28;20579;-82
2023/08/13 03:20:33;;;;;;;0.10;0.10;;;18.30;99.90;;;;;;5004320;28;20197;-81
2023/08/13 03:22:59;;;;;;;0.10;0.10;;;18.30;99.90;;;;;;5005519;28;20672;-82
2023/08/13 03:25:25;;;;;;;0.10;0.10;;;18.30;99.90;;;;;;5004511;28;20212;-81
2023/08/13 03:27:50;;;;;;;0.10;0.10;;;18.30;99.90;;;;;;5005758;28;20202;-81
2023/08/13 03:30:16;;;;;;;0.10;0.10;;;18.40;99.90;;;;;;5020121;28;20201;-82
2023/08/13 03:32:41;;;;;;;0.10;0.10;;;18.40;99.90;;;;;;5005239;28;20189;-82
2023/08/13 03:35:07;;;;;;;0.10;0.10;;;18.40;99.90;;;;;;5004498;28;20189;-81
2023/08/13 03:37:33;;;;;;;0.10;0.10;;;18.50;99.90;;;;;;5004502;28;20202;-81
2023/08/13 03:39:58;;;;;;;0.10;0.10;;;18.60;99.90;;;;;;5003418;28;20559;-82
2023/08/13 03:42:24;;;;;;;0.10;0.10;;;18.50;99.90;;;;;;5003935;28;20686;-81
2023/08/13 03:44:49;;;;;;;0.10;0.10;;;18.30;99.90;;;;;;5004875;28;20213;-81
2023/08/13 03:47:15;;;;;;;0.10;0.10;;;18.20;99.90;;;;;;5005357;28;20214;-82
2023/08/13 03:49:40;;;;;;;0.10;0.10;;;18.20;99.90;;;;;;5002640;28;20183;-81
2023/08/13 03:52:06;;;;;;;0.10;0.10;;;18.20;99.90;;;;;;5003509;28;20729;-81
2023/08/13 03:54:32;;;;;;;0.10;0.10;;;18.30;99.90;;;;;;5005109;28;20202;-82
2023/08/13 03:56:57;;;;;;;0.10;0.10;;;18.40;99.90;;;;;;5004894;28;20190;-82
2023/08/13 03:59:23;;;;;;;0.10;0.10;;;18.40;99.90;;;;;;5004709;28;20190;-82
2023/08/13 04:01:48;;;;;;;0.10;0.10;;;18.50;99.90;;;;;;5003519;28;20183;-82
2023/08/13 04:04:14;;;;;;;0.10;0.10;;;18.50;99.90;;;;;;5003852;28;20321;-81
2023/08/13 04:06:39;;;;;;;0.10;0.10;;;18.70;99.90;;;;;;5020021;28;20206;-81
2023/08/13 04:09:06;;;;;;;0.10;0.10;;;18.60;99.90;;;;;;5004136;28;20212;-81
2023/08/13 04:11:31;;;;;;;0.10;0.10;;;18.50;99.90;;;;;;5018727;28;20185;-81
2023/08/13 04:13:57;;;;;;;0.10;0.10;;;18.40;99.90;;;;;;5003067;28;20564;-82
2023/08/13 04:16:22;;;;;;;0.10;0.10;;;18.30;99.90;;;;;;5003456;28;20190;-82
2023/08/13 04:18:50;;;;;;;0.10;0.10;;;18.10;99.90;;;;;;5003119;28;20208;-81
2023/08/13 04:21:15;;;;;;;0.10;0.10;;;18.10;99.90;;;;;;5003158;28;20190;-81
2023/08/13 04:23:41;;;;;;;0.10;0.10;;;18.10;99.90;;;;;;5003151;28;20270;-81
2023/08/13 04:26:06;;;;;;;0.10;0.10;;;18.20;99.90;;;;;;5003264;28;20198;-82
2023/08/13 04:28:32;;;;;;;0.10;0.10;;;18.20;99.90;;;;;;5005934;28;20567;-81
2023/08/13 04:30:58;;;;;;;0.10;0.10;;;18.30;99.90;;;;;;5005481;28;20856;-82
2023/08/13 04:33:23;;;;;;;0.10;0.10;;;18.40;99.90;;;;;;5007316;28;20199;-81
2023/08/13 04:35:55;;;;;;;0.10;0.10;;;18.60;99.90;;;;;;5023363;28;20182;-81
2023/08/13 04:38:21;;;;;;;0.10;0.10;;;18.80;99.90;;;;;;5006643;28;20210;-81
2023/08/13 04:40:47;;;;;;;0.10;0.10;;;18.80;99.90;;;;;;5007121;28;20196;-81
2023/08/13 04:43:14;;;;;;;0.10;0.10;;;18.90;99.90;;;;;;5008377;28;20186;-81
2023/08/13 04:45:39;;;;;;;0.10;0.10;;;18.90;99.90;;;;;;5009539;28;20268;-82
2023/08/13 04:48:05;;;;;;;0.10;0.10;;;18.90;99.90;;;;;;5008010;28;20210;-81
2023/08/13 04:50:31;;;;;;;0.10;0.10;;;18.80;99.90;;;;;;5006766;28;20230;-81
2023/08/13 04:52:57;;;;;;;0.10;0.10;;;18.80;99.90;;;;;;5008708;28;20179;-81
2023/08/13 04:55:22;;;;;;;0.10;0.10;;;18.80;99.90;;;;;;5007719;28;20191;-81
2023/08/13 04:57:48;;;;;;;0.10;0.10;;;18.70;99.90;;;;;;5006963;28;21726;-81
2023/08/13 05:00:14;;;;;;;0.10;0.10;;;18.80;99.90;;;;;;5006900;28;20219;-81
2023/08/13 05:02:39;;;;;;;0.10;0.10;;;18.90;99.90;;;;;;5007236;28;20765;-82
2023/08/13 05:05:05;;;;;;;0.10;0.10;;;18.90;99.90;;;;;;5008175;28;20318;-82
2023/08/13 05:07:31;;;;;;;0.10;0.10;;;18.90;99.90;;;;;;5008001;28;20261;-82
2023/08/13 05:09:56;;;;;;;0.10;0.10;;;18.80;99.90;;;;;;5007213;28;20214;-81
2023/08/13 05:12:22;;;;;;;0.10;0.10;;;18.70;99.90;;;;;;5007886;28;20190;-81
2023/08/13 05:14:47;;;;;;;0.10;0.10;;;18.60;99.90;;;;;;5006021;28;20202;-82
2023/08/13 05:17:20;;;;;;;0.10;0.10;;;18.70;99.90;;;;;;5007332;28;20226;-82
2023/08/13 05:19:46;;;;;;;0.10;0.10;;;18.90;99.90;;;;;;5006444;28;20175;-82
2023/08/13 05:22:12;;;;;;;0.10;0.10;;;18.80;99.90;;;;;;5005663;28;20190;-81
2023/08/13 05:24:37;;;;;;;0.10;0.10;;;18.90;99.90;;;;;;5005803;28;20676;-81
2023/08/13 05:27:03;;;;;;;0.10;0.10;;;19.10;99.90;;;;;;5005607;28;20187;-81
2023/08/13 05:29:29;;;;;;;0.10;0.10;;;18.90;99.90;;;;;;5005359;28;20187;-81
2023/08/13 05:31:54;;;;;;;0.10;0.10;;;18.80;99.90;;;;;;5021705;28;20269;-81
2023/08/13 05:34:20;;;;;;;0.10;0.10;;;18.80;99.90;;;;;;5008903;28;20193;-81
2023/08/13 05:36:45;;;;;;;0.10;0.10;;;18.80;99.90;;;;;;5027381;28;20193;-82
2023/08/13 05:39:11;;;;;;;0.10;0.10;;;18.70;99.90;;;;;;5009572;28;20203;-81
2023/08/13 05:41:36;;;;;;;0.10;0.10;;;18.80;99.90;;;;;;5009119;28;20202;-82
2023/08/13 05:44:02;;;;;;;0.10;0.10;;;18.80;99.90;;;;;;5010001;28;20270;-82
2023/08/13 05:46:28;;;;;;;0.10;0.10;;;18.80;99.90;;;;;;5008410;28;20570;-81
2023/08/13 05:48:53;;;;;;;0.10;0.10;;;18.90;99.90;;;;;;5009910;28;20226;-81
2023/08/13 05:51:19;;;;;;;0.10;0.10;;;19.00;99.90;;;;;;5006792;28;20205;-81
2023/08/13 05:53:44;;;;;;;0.10;0.10;;;19.00;99.90;;;;;;5008997;28;20255;-81
2023/08/13 05:56:10;;;;;;;0.10;0.10;;;19.20;99.90;;;;;;5009021;28;20191;-81
2023/08/13 05:58:36;;;;;;;0.10;0.10;;;19.50;99.90;;;;;;5007353;28;20711;-82
2023/08/13 06:01:01;;;;;;;0.10;0.10;;;19.70;99.90;;;;;;5005978;28;20222;-82
2023/08/13 06:03:27;;;;;;;0.10;0.10;;;19.80;99.90;;;;;;5006220;28;20193;-81
2023/08/13 06:05:54;;;;;;;0.10;0.10;;;19.70;99.90;;;;;;5007338;28;20249;-82
2023/08/13 06:08:20;;;;;;;0.10;0.10;;;19.80;99.90;;;;;;5023186;28;20590;-81
2023/08/13 06:10:45;;;;;;;0.10;0.10;;;19.90;99.90;;;;;;5007066;28;20198;-81
2023/08/13 06:13:11;;;;;;;0.10;0.10;;;20.00;99.90;;;;;;5006921;28;20571;-82
2023/08/13 06:15:36;;;;;;;0.10;0.10;;;20.20;99.90;;;;;;5007714;28;20209;-81
2023/08/13 06:18:02;;;;;;;0.10;0.10;;;20.30;99.90;;;;;;5004811;28;20233;-81
2023/08/13 06:20:28;;;;;;;0.10;0.10;;;20.50;99.90;;;;;;5005683;28;20215;-81
2023/08/13 06:22:53;;;;;;;0.10;0.10;;;20.80;99.90;;;;;;5006056;28;20649;-82
2023/08/13 06:25:19;;;;;;;0.10;0.10;;;21.00;99.90;;;;;;5021047;28;20214;-81
2023/08/13 06:27:44;;;;;;;0.10;0.10;;;21.10;99.90;;;;;;5006110;28;20298;-81
2023/08/13 06:30:10;;;;;;;0.10;0.10;;;21.20;99.90;;;;;;5005892;28;20262;-81
2023/08/13 06:32:36;;;;;;;0.10;0.10;;;21.20;99.90;;;;;;5005169;28;20179;-82
2023/08/13 06:35:01;;;;;;;0.10;0.10;;;21.50;99.90;;;;;;5006403;28;20186;-82
2023/08/13 06:37:27;;;;;;;0.10;0.10;;;21.80;99.90;;;;;;5006281;28;20202;-81
2023/08/13 06:39:52;;;;;;;0.10;0.10;;;21.90;99.90;;;;;;5005882;28;20175;-81
2023/08/13 06:42:18;;;;;;;0.10;0.10;;;21.80;99.90;;;;;;5003845;28;20191;-81
2023/08/13 06:44:44;;;;;;;0.10;0.10;;;21.90;99.90;;;;;;5021169;28;20190;-81
2023/08/13 06:47:09;;;;;;;0.10;0.10;;;21.90;99.90;;;;;;5009929;28;20241;-82
2023/08/13 06:49:35;;;;;;;0.10;0.10;;;22.00;99.90;;;;;;5009159;28;20201;-82
2023/08/13 06:52:00;;;;;;;0.10;0.10;;;22.10;99.90;;;;;;5008058;28;20191;-82
2023/08/13 06:54:26;;;;;;;0.10;0.10;;;21.60;99.90;;;;;;5007750;28;20619;-81
2023/08/13 06:56:52;;;;;;;0.10;0.10;;;21.50;99.90;;;;;;5007736;28;20190;-81
2023/08/13 06:59:17;;;;;;;0.10;0.10;;;21.90;99.90;;;;;;5007129;28;20744;-81
2023/08/13 07:01:43;;;;;;;0.10;0.10;;;22.30;99.90;;;;;;5008170;28;20183;-82
2023/08/13 07:04:08;;;;;;;0.10;0.10;;;22.50;99.90;;;;;;5007046;28;21085;-81
2023/08/13 07:06:34;;;;;;;0.10;0.10;;;22.80;99.90;;;;;;5007783;28;20758;-82
2023/08/13 07:09:03;;;;;;;0.10;0.10;;;23.00;99.90;;;;;;5022800;28;20234;-81
2023/08/13 07:11:29;;;;;;;0.10;0.10;;;23.30;99.90;;;;;;5005471;28;20269;-82
2023/08/13 07:13:57;;;;;;;0.10;0.10;;;23.30;99.90;;;;;;5006481;28;20188;-82
2023/08/13 07:16:22;;;;;;;0.10;0.10;;;23.30;99.90;;;;;;5005717;28;20564;-82
2023/08/13 07:18:48;;;;;;;0.10;0.10;;;23.30;99.90;;;;;;5021260;28;20825;-82
2023/08/13 07:21:13;;;;;;;0.10;0.10;;;23.30;99.90;;;;;;5004188;28;20236;-81
2023/08/13 07:23:39;;;;;;;0.10;0.10;;;23.30;99.90;;;;;;5003664;28;20194;-82
2023/08/13 07:26:05;;;;;;;0.10;0.10;;;23.20;99.90;;;;;;5005084;28;20256;-82
2023/08/13 07:28:34;;;;;;;0.10;0.10;;;22.90;99.90;;;;;;5006656;28;20242;-81
2023/08/13 07:31:03;;;;;;;0.10;0.10;;;22.90;99.90;;;;;;5004629;28;20469;-82
2023/08/13 07:33:29;;;;;;;0.10;0.10;;;22.90;99.90;;;;;;5005694;28;20191;-81
2023/08/13 07:35:55;;;;;;;0.10;0.10;;;23.10;99.90;;;;;;5020291;28;20183;-81
2023/08/13 07:38:20;;;;;;;0.10;0.10;;;23.30;99.90;;;;;;5003761;28;20696;-82
2023/08/13 07:40:46;;;;;;;0.10;0.10;;;23.40;99.90;;;;;;5004329;28;20190;-82
2023/08/13 07:43:11;;;;;;;0.10;0.10;;;23.60;99.90;;;;;;5006126;28;20194;-82
2023/08/13 07:45:37;;;;;;;0.10;0.10;;;23.60;99.90;;;;;;5004256;28;20341;-82
2023/08/13 07:48:02;;;;;;;0.10;0.10;;;23.50;99.90;;;;;;5004602;28;20237;-82
2023/08/13 07:50:29;;;;;;;0.10;0.10;;;23.60;99.90;;;;;;5020978;28;20245;-82
2023/08/13 07:52:55;;;;;;;0.10;0.10;;;23.80;99.90;;;;;;5004017;28;20209;-82
2023/08/13 07:55:20;;;;;;;0.10;0.10;;;24.00;99.90;;;;;;5004895;28;20191;-82
2023/08/13 07:57:46;;;;;;;0.10;0.10;;;24.40;99.90;;;;;;5004097;28;20221;-82
2023/08/13 08:00:12;;;;;;;0.10;0.10;;;24.60;99.90;;;;;;5004961;28;20191;-82
2023/08/13 08:02:38;;;;;;;0.10;0.10;;;24.80;99.90;;;;;;5003937;28;20191;-82
2023/08/13 08:05:05;;;;;;;0.10;0.10;;;24.90;99.90;;;;;;5008026;28;20206;-82
2023/08/13 08:07:31;;;;;;;0.10;0.10;;;25.10;99.90;;;;;;5024499;28;20245;-82
2023/08/13 08:09:57;;;;;;;0.10;0.10;;;25.30;99.90;;;;;;5023426;28;20197;-82
2023/08/13 08:12:22;;;;;;;0.10;0.10;;;25.50;99.90;;;;;;5007804;28;20179;-81
2023/08/13 08:14:48;;;;;;;0.10;0.10;;;25.30;99.90;;;;;;5008660;28;20217;-81
2023/08/13 08:17:13;;;;;;;0.10;0.10;;;25.00;99.90;;;;;;5007223;28;20203;-82
2023/08/13 08:19:39;;;;;;;0.10;0.10;;;25.00;99.90;;;;;;5008319;28;20198;-83
2023/08/13 08:22:04;;;;;;;0.10;0.10;;;25.00;99.90;;;;;;5008708;28;20191;-83
2023/08/13 08:24:30;;;;;;;0.10;0.10;;;25.00;99.90;;;;;;5008709;28;20187;-82
2023/08/13 08:26:55;;;;;;;0.10;0.10;;;25.00;99.90;;;;;;5008523;28;20199;-82
2023/08/13 08:29:21;;;;;;;0.10;0.10;;;25.20;99.90;;;;;;5007112;28;20187;-83
2023/08/13 08:31:47;;;;;;;0.10;0.10;;;25.50;99.90;;;;;;5006985;28;20213;-83
2023/08/13 08:34:12;;;;;;;0.10;0.10;;;25.60;99.90;;;;;;5006706;28;20202;-82
2023/08/13 08:36:38;;;;;;;0.10;0.10;;;25.70;99.90;;;;;;5007441;28;20183;-82
2023/08/13 08:39:04;;;;;;;0.10;0.10;;;25.60;99.90;;;;;;5007019;28;20760;-83
2023/08/13 08:41:35;;;;;;;0.10;0.10;;;25.80;99.90;;;;;;5006697;28;20195;-83
2023/08/13 08:44:00;;;;;;;0.10;0.10;;;25.80;99.90;;;;;;5008228;28;20266;-82
2023/08/13 08:46:27;;;;;;;0.10;0.10;;;25.80;99.90;;;;;;5008097;28;20275;-82
2023/08/13 08:48:53;;;;;;;0.10;0.10;;;25.70;99.90;;;;;;5025066;28;20226;-82
2023/08/13 08:51:21;;;;;;;0.10;0.10;;;25.80;99.90;;;;;;5010474;28;20202;-82
2023/08/13 08:53:49;;;;;;;0.10;0.10;;;25.60;99.90;;;;;;5025229;28;20240;-82
2023/08/13 08:56:14;;;;;;;0.10;0.10;;;25.80;99.90;;;;;;5009507;28;20190;-83
2023/08/13 08:58:40;;;;;;;0.10;0.10;;;25.80;99.90;;;;;;5008616;28;20293;-82
2023/08/13 09:01:06;;;;;;;0.10;0.10;;;25.70;99.90;;;;;;5007924;28;20218;-82
2023/08/13 09:03:31;;;;;;;0.10;0.10;;;25.70;99.90;;;;;;5009875;28;20633;-83
2023/08/13 09:05:57;;;;;;;0.10;0.10;;;25.90;99.90;;;;;;5009353;28;20214;-82
2023/08/13 09:08:23;;;;;;;0.10;0.10;;;26.10;99.90;;;;;;5007876;28;20684;-82
2023/08/13 09:10:48;;;;;;;0.10;0.10;;;26.20;99.90;;;;;;5007970;28;20723;-82
2023/08/13 09:13:14;;;;;;;0.10;0.10;;;26.30;99.90;;;;;;5008615;28;20179;-83
2023/08/13 09:15:44;;;;;;;0.10;0.10;;;26.30;99.90;;;;;;5008730;28;20218;-83
2023/08/13 09:18:11;;;;;;;0.10;0.10;;;26.30;99.90;;;;;;5008057;28;20207;-82
2023/08/13 09:20:47;;;;;;;0.10;0.10;;;26.10;99.90;;;;;;5006153;28;20194;-82
2023/08/13 09:23:23;;;;;;;0.10;0.10;;;26.10;99.90;;;;;;5007806;28;20182;-82
2023/08/13 09:25:57;;;;;;;0.10;0.10;;;26.20;99.90;;;;;;5022550;28;20861;-82
2023/08/13 09:28:23;;;;;;;0.10;0.10;;;26.30;99.90;;;;;;5007789;28;20199;-82
2023/08/13 09:30:48;;;;;;;0.10;0.10;;;26.50;99.90;;;;;;5005841;28;20237;-82
2023/08/13 09:33:15;;;;;;;0.10;0.10;;;26.50;99.90;;;;;;5006358;28;20205;-82
2023/08/13 09:35:42;;;;;;;0.10;0.10;;;26.70;99.90;;;;;;5022306;28;20293;-83
2023/08/13 09:38:08;;;;;;;0.10;0.10;;;26.80;99.90;;;;;;5023013;28;20207;-82
2023/08/13 09:40:34;;;;;;;0.10;0.10;;;26.80;99.90;;;;;;5006907;28;20205;-83
2023/08/13 09:43:06;;;;;;;0.10;0.10;;;26.80;99.90;;;;;;5007232;28;20191;-83
2023/08/13 09:45:33;;;;;;;0.10;0.10;;;26.70;99.90;;;;;;5007904;28;20203;-82
2023/08/13 09:48:03;;;;;;;0.10;0.10;;;26.90;99.90;;;;;;5005850;28;20209;-82
2023/08/13 09:50:34;;;;;;;0.10;0.10;;;27.00;99.90;;;;;;5021279;28;20692;-82
2023/08/13 09:53:01;;;;;;;0.10;0.10;;;26.90;99.90;;;;;;5021633;28;20202;-83
2023/08/13 09:55:31;;;;;;;0.10;0.10;;;27.00;99.90;;;;;;5006352;28;20187;-82
2023/08/13 09:58:00;;;;;;;0.10;0.10;;;26.80;99.90;;;;;;5005095;28;20213;-83
2023/08/13 10:00:27;;;;;;;0.10;0.10;;;26.90;99.90;;;;;;5006770;28;20187;-83
2023/08/13 10:02:53;;;;;;;0.10;0.10;;;26.90;99.90;;;;;;5004728;28;20262;-82
2023/08/13 10:05:19;;;;;;;0.10;0.10;;;26.90;99.90;;;;;;5007542;28;20214;-83
2023/08/13 10:07:45;;;;;;;0.10;0.10;;;26.80;99.90;;;;;;5008654;28;20199;-83
2023/08/13 10:10:11;;;;;;;0.10;0.10;;;26.80;99.90;;;;;;5006914;28;20630;-82
2023/08/13 10:12:38;;;;;;;0.10;0.10;;;26.90;99.90;;;;;;5006693;28;20179;-82
2023/08/13 10:15:04;;;;;;;0.10;0.10;;;26.50;99.90;;;;;;5022117;28;20213;-82
2023/08/13 10:17:32;;;;;;;0.10;0.10;;;26.40;99.90;;;;;;5022762;28;20235;-82
2023/08/13 10:19:59;;;;;;;0.10;0.10;;;26.60;99.90;;;;;;5007821;28;20193;-83
2023/08/13 10:22:35;;;;;;;0.10;0.10;;;26.80;99.90;;;;;;5008236;28;20568;-83
2023/08/13 10:25:01;;;;;;;0.10;0.10;;;26.70;99.90;;;;;;5023745;28;20769;-82
2023/08/13 10:27:28;;;;;;;0.10;0.10;;;26.50;99.90;;;;;;5021302;28;20257;-83
2023/08/13 10:30:05;;;;;;;0.10;0.10;;;26.40;99.90;;;;;;5005885;28;20183;-82
2023/08/13 10:32:31;;;;;;;0.10;0.10;;;26.40;99.90;;;;;;5006846;28;20281;-82
2023/08/13 10:34:57;;;;;;;0.10;0.10;;;26.40;99.90;;;;;;5008595;28;20183;-83
2023/08/13 10:37:24;;;;;;;0.10;0.10;;;26.50;99.90;;;;;;5006294;28;20697;-83
2023/08/13 10:39:55;;;;;;;0.10;0.10;;;26.40;99.90;;;;;;5004837;28;20246;-82
2023/08/13 10:42:27;;;;;;;0.10;0.10;;;26.40;99.90;;;;;;5006236;28;20321;-82
2023/08/13 10:44:54;;;;;;;0.10;0.10;;;26.70;99.90;;;;;;5006149;28;20236;-83
2023/08/13 10:47:23;;;;;;;0.10;0.10;;;26.70;99.90;;;;;;5005947;28;20198;-82
2023/08/13 10:49:48;;;;;;;0.10;0.10;;;26.80;99.90;;;;;;5005119;28;20339;-83
2023/08/13 10:52:14;;;;;;;0.10;0.10;;;26.60;99.90;;;;;;5006139;28;20285;-82
2023/08/13 10:54:40;;;;;;;0.10;0.10;;;26.80;99.90;;;;;;5006514;28;21026;-83
2023/08/13 10:57:05;;;;;;;0.10;0.10;;;26.90;99.90;;;;;;5005498;28;20188;-82
2023/08/13 10:59:33;;;;;;;0.10;0.10;;;26.80;99.90;;;;;;5005730;28;20187;-82
2023/08/13 11:02:15;;;;;;;0.10;0.10;;;26.90;99.90;;;;;;5005197;28;20195;-82
2023/08/13 11:04:43;;;;;;;0.10;0.10;;;27.00;99.90;;;;;;5004326;28;20229;-82
2023/08/13 11:07:13;;;;;;;0.10;0.10;;;27.00;99.90;;;;;;5005226;28;20187;-83
2023/08/13 11:09:39;;;;;;;0.10;0.10;;;27.00;99.90;;;;;;5020871;28;20252;-83
2023/08/13 11:12:07;;;;;;;0.10;0.10;;;26.90;99.90;;;;;;5005584;28;20644;-82
2023/08/13 11:14:32;;;;;;;0.10;0.10;;;26.90;99.90;;;;;;5005277;28;20252;-83
2023/08/13 11:16:59;;;;;;;0.10;0.10;;;27.10;99.90;;;;;;5005119;28;20748;-83
2023/08/13 11:19:24;;;;;;;0.10;0.10;;;27.10;99.90;;;;;;5004936;28;20187;-83
2023/08/13 11:21:51;;;;;;;0.10;0.10;;;27.20;99.90;;;;;;5004603;28;20598;-83
2023/08/13 11:24:16;;;;;;;0.10;0.10;;;27.20;99.90;;;;;;5004369;28;20191;-82
2023/08/13 11:26:42;;;;;;;0.10;0.10;;;27.30;99.90;;;;;;5003974;28;20210;-82
2023/08/13 11:29:08;;;;;;;1.40;1.40;;;27.20;99.90;;;;;;5004939;28;20203;-83
2023/08/13 11:31:34;;;;;;;0.10;0.10;;;27.20;99.90;;;;;;5004598;28;20232;-83
2023/08/13 11:33:59;;;;;;;0.10;0.10;;;26.90;99.90;;;;;;5020094;28;20695;-83
2023/08/13 11:36:26;;;;;;;0.10;0.10;;;26.80;99.90;;;;;;5005317;28;20211;-83
2023/08/13 11:38:51;;;;;;;0.10;0.10;;;26.70;99.90;;;;;;5002343;28;20685;-82
2023/08/13 11:41:17;;;;;;;0.10;0.10;;;26.60;99.90;;;;;;5003098;28;20190;-83
2023/08/13 11:43:43;;;;;;;0.10;0.10;;;26.60;99.90;;;;;;5019806;28;20175;-82
2023/08/13 11:46:08;;;;;;;0.10;0.10;;;26.70;99.90;;;;;;5004929;28;20250;-83
2023/08/13 11:48:37;;;;;;;0.10;0.10;;;26.70;99.90;;;;;;5003342;28;20323;-83
2023/08/13 11:51:14;;;;;;;0.10;0.10;;;26.90;99.90;;;;;;5004145;28;20193;-83
2023/08/13 11:53:47;;;;;;;0.10;0.10;;;26.90;99.90;;;;;;5019666;28;20198;-83
2023/08/13 11:56:14;;;;;;;0.10;0.10;;;27.10;99.90;;;;;;5004858;28;20205;-83
2023/08/13 11:58:40;;;;;;;0.10;0.10;;;27.20;99.90;;;;;;5005364;28;20219;-82
2023/08/13 12:01:06;;;;;;;0.10;0.10;;;27.40;99.90;;;;;;5004881;28;21029;-83
2023/08/13 12:03:42;;;;;;;0.10;0.10;;;27.30;99.90;;;;;;5004877;28;20186;-83
2023/08/13 12:06:09;;;;;;;0.10;0.10;;;27.40;99.90;;;;;;5005705;28;20210;-82
2023/08/13 12:08:34;;;;;;;0.10;0.10;;;27.60;99.90;;;;;;5005945;28;20233;-83
2023/08/13 12:11:00;;;;;;;0.10;0.10;;;27.70;99.90;;;;;;5005540;28;20203;-83
2023/08/13 12:13:26;;;;;;;0.10;0.10;;;27.80;99.90;;;;;;5004869;28;20187;-83
2023/08/13 12:15:52;;;;;;;0.10;0.10;;;27.80;99.90;;;;;;5021084;28;21108;-83
2023/08/13 12:18:17;;;;;;;0.10;0.10;;;27.70;99.90;;;;;;5006748;28;20222;-83
2023/08/13 12:20:43;;;;;;;0.10;0.10;;;27.60;99.90;;;;;;5021089;28;20219;-83
2023/08/13 12:23:09;;;;;;;0.10;0.10;;;27.90;99.90;;;;;;5005666;28;20264;-82
2023/08/13 12:25:35;;;;;;;0.10;0.10;;;28.00;99.90;;;;;;5005310;28;20260;-82
2023/08/13 12:28:00;;;;;;;0.10;0.10;;;28.10;99.90;;;;;;5003881;28;20311;-82
2023/08/13 12:30:26;;;;;;;0.10;0.10;;;28.20;99.90;;;;;;5004559;28;20218;-83
2023/08/13 12:32:52;;;;;;;0.10;0.10;;;28.20;99.90;;;;;;5020244;28;20236;-83
2023/08/13 12:35:18;;;;;;;0.10;0.10;;;28.20;99.90;;;;;;5004637;28;20187;-82
2023/08/13 12:37:43;;;;;;;0.10;0.10;;;28.30;99.90;;;;;;5019284;28;20199;-83
2023/08/13 12:40:10;;;;;;;0.10;0.10;;;28.20;99.90;;;;;;5002624;28;20191;-83
2023/08/13 12:42:36;;;;;;;0.10;0.10;;;28.30;99.90;;;;;;5018956;28;20266;-82
2023/08/13 12:45:03;;;;;;;0.10;0.10;;;28.30;99.90;;;;;;5003060;28;20202;-82